Cuba, Illinois
Current Conditions -  °F | °C
As of 5:55 PM on Sunday 21 Dec 2014 (Local Time) from KMQB Reporting Station
Overcast Overcast  
Wind Chill: 29°   Ceiling: 4200
Heat Index: 37°   Visibility: 7mi
Dew Point: 34°   Wind: 14mph
Humidity: 87%   Direction: 140°SE
Pressure: 30"   Gusts: NA
Location:  40.49°N, 90.19°W
Report Text: KMQB 212355Z AUTO 14012KT 7SM SCT020 OVC042 03/01 A3000 RMK AO2 T00290010 10053 20028
Loading
Personal Weather Stations






























Interactive Weather Map New forecast layout! Learn more

10-Day Weather Forecast

Advertisements
Track Severe Weather on mobile